sensor_id;sensor_type;location;lat;lon;timestamp;temperature;humidity
5461;DHT22;2753;49.196;8.286;2023-03-31T00:02:08;13.30;99.90
5461;DHT22;2753;49.196;8.286;2023-03-31T00:04:41;13.30;99.90
5461;DHT22;2753;49.196;8.286;2023-03-31T00:07:11;13.30;99.90
5461;DHT22;2753;49.196;8.286;2023-03-31T00:09:37;13.30;99.90
5461;DHT22;2753;49.196;8.286;2023-03-31T00:12:05;13.30;99.90
5461;DHT22;2753;49.196;8.286;2023-03-31T00:14:31;13.30;99.90
5461;DHT22;2753;49.196;8.286;2023-03-31T00:16:56;13.20;99.90
5461;DHT22;2753;49.196;8.286;2023-03-31T00:19:22;13.20;99.90
5461;DHT22;2753;49.196;8.286;2023-03-31T00:21:48;13.10;99.90
5461;DHT22;2753;49.196;8.286;2023-03-31T00:24:16;13.10;99.90
5461;DHT22;2753;49.196;8.286;2023-03-31T00:26:42;13.10;99.90
5461;DHT22;2753;49.196;8.286;2023-03-31T00:29:10;13.00;99.90
5461;DHT22;2753;49.196;8.286;2023-03-31T00:31:36;13.10;99.90
5461;DHT22;2753;49.196;8.286;2023-03-31T00:34:03;13.00;99.90
5461;DHT22;2753;49.196;8.286;2023-03-31T00:36:29;13.00;99.90
5461;DHT22;2753;49.196;8.286;2023-03-31T00:38:57;13.00;99.90
5461;DHT22;2753;49.196;8.286;2023-03-31T00:41:24;13.10;99.90
5461;DHT22;2753;49.196;8.286;2023-03-31T00:44:21;13.10;99.90
5461;DHT22;2753;49.196;8.286;2023-03-31T00:47:02;13.10;99.90
5461;DHT22;2753;49.196;8.286;2023-03-31T00:49:34;13.10;99.90
5461;DHT22;2753;49.196;8.286;2023-03-31T00:52:09;13.10;99.90
5461;DHT22;2753;49.196;8.286;2023-03-31T00:54:39;13.20;99.90
5461;DHT22;2753;49.196;8.286;2023-03-31T00:57:07;13.20;99.90
5461;DHT22;2753;49.196;8.286;2023-03-31T00:59:38;13.20;99.90
5461;DHT22;2753;49.196;8.286;2023-03-31T01:02:05;13.10;99.90
5461;DHT22;2753;49.196;8.286;2023-03-31T01:04:35;13.20;99.90
5461;DHT22;2753;49.196;8.286;2023-03-31T01:07:21;13.10;99.90
5461;DHT22;2753;49.196;8.286;2023-03-31T01:09:49;13.10;99.90
5461;DHT22;2753;49.196;8.286;2023-03-31T01:12:20;13.10;99.90
5461;DHT22;2753;49.196;8.286;2023-03-31T01:14:49;13.10;99.90
5461;DHT22;2753;49.196;8.286;2023-03-31T01:17:17;13.00;99.90
5461;DHT22;2753;49.196;8.286;2023-03-31T01:25:52;12.90;99.90
5461;DHT22;2753;49.196;8.286;2023-03-31T01:46:03;12.90;99.90
5461;DHT22;2753;49.196;8.286;2023-03-31T01:51:38;12.90;99.90
5461;DHT22;2753;49.196;8.286;2023-03-31T01:56:59;12.90;99.90
5461;DHT22;2753;49.196;8.286;2023-03-31T01:59:30;12.90;99.90
5461;DHT22;2753;49.196;8.286;2023-03-31T02:02:02;12.90;99.90
5461;DHT22;2753;49.196;8.286;2023-03-31T02:04:35;12.90;99.90
5461;DHT22;2753;49.196;8.286;2023-03-31T02:07:07;12.90;99.90
5461;DHT22;2753;49.196;8.286;2023-03-31T02:09:37;12.90;99.90
5461;DHT22;2753;49.196;8.286;2023-03-31T02:12:07;12.90;99.90
5461;DHT22;2753;49.196;8.286;2023-03-31T02:14:36;12.90;99.90
5461;DHT22;2753;49.196;8.286;2023-03-31T02:17:04;12.90;99.90
5461;DHT22;2753;49.196;8.286;2023-03-31T02:19:36;12.80;99.90
5461;DHT22;2753;49.196;8.286;2023-03-31T02:22:05;12.80;99.90
5461;DHT22;2753;49.196;8.286;2023-03-31T02:24:33;12.80;99.90
5461;DHT22;2753;49.196;8.286;2023-03-31T02:27:30;12.80;99.90
5461;DHT22;2753;49.196;8.286;2023-03-31T02:29:58;12.80;99.90
5461;DHT22;2753;49.196;8.286;2023-03-31T02:34:58;12.70;99.90
5461;DHT22;2753;49.196;8.286;2023-03-31T02:37:27;12.60;99.90
5461;DHT22;2753;49.196;8.286;2023-03-31T02:39:55;12.60;99.90
5461;DHT22;2753;49.196;8.286;2023-03-31T02:42:21;12.70;99.90
5461;DHT22;2753;49.196;8.286;2023-03-31T02:44:47;12.70;99.90
5461;DHT22;2753;49.196;8.286;2023-03-31T02:47:14;12.70;99.90
5461;DHT22;2753;49.196;8.286;2023-03-31T02:49:54;12.70;99.90
5461;DHT22;2753;49.196;8.286;2023-03-31T02:52:36;12.70;99.90
5461;DHT22;2753;49.196;8.286;2023-03-31T03:00:44;12.70;99.90
5461;DHT22;2753;49.196;8.286;2023-03-31T03:14:28;12.70;99.90
5461;DHT22;2753;49.196;8.286;2023-03-31T03:17:06;12.70;99.90
5461;DHT22;2753;49.196;8.286;2023-03-31T03:19:33;12.70;99.90
5461;DHT22;2753;49.196;8.286;2023-03-31T03:21:58;12.20;99.90
5461;DHT22;2753;49.196;8.286;2023-03-31T03:24:24;12.60;99.90
5461;DHT22;2753;49.196;8.286;2023-03-31T03:26:54;12.60;99.90
5461;DHT22;2753;49.196;8.286;2023-03-31T03:29:20;12.60;99.90
5461;DHT22;2753;49.196;8.286;2023-03-31T03:31:46;12.60;99.90
5461;DHT22;2753;49.196;8.286;2023-03-31T03:34:12;12.60;99.90
5461;DHT22;2753;49.196;8.286;2023-03-31T03:36:38;12.60;99.90
5461;DHT22;2753;49.196;8.286;2023-03-31T03:39:05;12.60;99.90
5461;DHT22;2753;49.196;8.286;2023-03-31T03:41:32;12.50;99.90
5461;DHT22;2753;49.196;8.286;2023-03-31T03:43:59;12.50;99.90
5461;DHT22;2753;49.196;8.286;2023-03-31T03:46:25;12.40;99.90
5461;DHT22;2753;49.196;8.286;2023-03-31T03:48:50;12.30;99.90
5461;DHT22;2753;49.196;8.286;2023-03-31T03:51:16;12.30;99.90
5461;DHT22;2753;49.196;8.286;2023-03-31T03:53:42;12.30;99.90
5461;DHT22;2753;49.196;8.286;2023-03-31T03:56:07;12.30;99.90
5461;DHT22;2753;49.196;8.286;2023-03-31T03:58:33;12.30;99.90
5461;DHT22;2753;49.196;8.286;2023-03-31T04:00:59;12.30;99.90
5461;DHT22;2753;49.196;8.286;2023-03-31T04:03:24;12.30;99.90
5461;DHT22;2753;49.196;8.286;2023-03-31T04:05:50;12.30;99.90
5461;DHT22;2753;49.196;8.286;2023-03-31T04:08:17;12.20;99.90
5461;DHT22;2753;49.196;8.286;2023-03-31T04:10:44;12.20;99.90
5461;DHT22;2753;49.196;8.286;2023-03-31T04:13:10;12.10;99.90
5461;DHT22;2753;49.196;8.286;2023-03-31T04:15:36;12.10;99.90
5461;DHT22;2753;49.196;8.286;2023-03-31T04:18:02;12.10;99.90
5461;DHT22;2753;49.196;8.286;2023-03-31T04:20:27;12.00;99.90
5461;DHT22;2753;49.196;8.286;2023-03-31T04:22:55;12.10;99.90
5461;DHT22;2753;49.196;8.286;2023-03-31T04:25:21;12.10;99.90
5461;DHT22;2753;49.196;8.286;2023-03-31T04:27:51;12.10;99.90
5461;DHT22;2753;49.196;8.286;2023-03-31T04:30:25;12.10;99.90
5461;DHT22;2753;49.196;8.286;2023-03-31T04:32:59;12.10;99.90
5461;DHT22;2753;49.196;8.286;2023-03-31T04:35:28;12.10;99.90
5461;DHT22;2753;49.196;8.286;2023-03-31T04:38:07;12.10;99.90
5461;DHT22;2753;49.196;8.286;2023-03-31T04:40:33;12.00;99.90
5461;DHT22;2753;49.196;8.286;2023-03-31T04:43:00;12.00;99.90
5461;DHT22;2753;49.196;8.286;2023-03-31T04:45:26;12.00;99.90
5461;DHT22;2753;49.196;8.286;2023-03-31T04:47:51;12.00;99.90
5461;DHT22;2753;49.196;8.286;2023-03-31T04:50:17;12.00;99.90
5461;DHT22;2753;49.196;8.286;2023-03-31T04:52:43;11.90;99.90
5461;DHT22;2753;49.196;8.286;2023-03-31T04:55:09;12.00;99.90
5461;DHT22;2753;49.196;8.286;2023-03-31T04:57:35;11.90;99.90
5461;DHT22;2753;49.196;8.286;2023-03-31T05:00:02;11.80;99.90
5461;DHT22;2753;49.196;8.286;2023-03-31T05:02:31;11.80;99.90
5461;DHT22;2753;49.196;8.286;2023-03-31T05:04:57;11.80;99.90
5461;DHT22;2753;49.196;8.286;2023-03-31T05:07:23;11.80;99.90
5461;DHT22;2753;49.196;8.286;2023-03-31T05:09:48;11.80;99.90
5461;DHT22;2753;49.196;8.286;2023-03-31T05:12:14;11.80;99.90
5461;DHT22;2753;49.196;8.286;2023-03-31T05:14:40;11.80;99.90
5461;DHT22;2753;49.196;8.286;2023-03-31T05:17:06;11.70;99.90
5461;DHT22;2753;49.196;8.286;2023-03-31T05:19:31;11.70;99.90
5461;DHT22;2753;49.196;8.286;2023-03-31T05:21:57;11.60;99.90
5461;DHT22;2753;49.196;8.286;2023-03-31T05:24:23;11.60;99.90
5461;DHT22;2753;49.196;8.286;2023-03-31T05:26:49;11.60;99.90
5461;DHT22;2753;49.196;8.286;2023-03-31T05:29:20;11.60;99.90
5461;DHT22;2753;49.196;8.286;2023-03-31T05:31:46;11.60;99.90
5461;DHT22;2753;49.196;8.286;2023-03-31T05:34:13;11.60;99.90
5461;DHT22;2753;49.196;8.286;2023-03-31T05:36:39;11.50;99.90
5461;DHT22;2753;49.196;8.286;2023-03-31T05:39:05;11.50;99.90
5461;DHT22;2753;49.196;8.286;2023-03-31T05:41:30;11.50;99.90
5461;DHT22;2753;49.196;8.286;2023-03-31T05:43:56;11.40;99.90
5461;DHT22;2753;49.196;8.286;2023-03-31T05:46:22;11.40;99.90
5461;DHT22;2753;49.196;8.286;2023-03-31T05:48:48;11.40;99.90
5461;DHT22;2753;49.196;8.286;2023-03-31T05:51:14;11.40;99.90
5461;DHT22;2753;49.196;8.286;2023-03-31T05:53:39;11.40;99.90
5461;DHT22;2753;49.196;8.286;2023-03-31T05:56:06;11.50;99.90
5461;DHT22;2753;49.196;8.286;2023-03-31T05:58:36;11.50;99.90
5461;DHT22;2753;49.196;8.286;2023-03-31T06:01:10;11.50;99.90
5461;DHT22;2753;49.196;8.286;2023-03-31T06:03:40;11.40;99.90
5461;DHT22;2753;49.196;8.286;2023-03-31T06:06:07;11.30;99.90
5461;DHT22;2753;49.196;8.286;2023-03-31T06:08:34;11.30;99.90
5461;DHT22;2753;49.196;8.286;2023-03-31T06:11:03;11.20;99.90
5461;DHT22;2753;49.196;8.286;2023-03-31T06:13:29;11.20;99.90
5461;DHT22;2753;49.196;8.286;2023-03-31T06:15:56;11.20;99.90
5461;DHT22;2753;49.196;8.286;2023-03-31T06:18:22;11.20;99.90
5461;DHT22;2753;49.196;8.286;2023-03-31T06:20:49;11.20;99.90
5461;DHT22;2753;49.196;8.286;2023-03-31T06:23:15;11.30;99.90
5461;DHT22;2753;49.196;8.286;2023-03-31T06:25:41;11.20;99.90
5461;DHT22;2753;49.196;8.286;2023-03-31T06:28:07;11.20;99.90
5461;DHT22;2753;49.196;8.286;2023-03-31T06:30:33;11.20;99.90
5461;DHT22;2753;49.196;8.286;2023-03-31T06:32:58;11.30;99.90
5461;DHT22;2753;49.196;8.286;2023-03-31T06:35:24;11.20;99.90
5461;DHT22;2753;49.196;8.286;2023-03-31T06:37:50;11.30;99.90
5461;DHT22;2753;49.196;8.286;2023-03-31T06:40:16;11.30;99.90
5461;DHT22;2753;49.196;8.286;2023-03-31T06:42:41;11.20;99.90
5461;DHT22;2753;49.196;8.286;2023-03-31T06:45:07;11.30;99.90
5461;DHT22;2753;49.196;8.286;2023-03-31T06:47:33;11.30;99.90
5461;DHT22;2753;49.196;8.286;2023-03-31T06:49:59;11.30;99.90
5461;DHT22;2753;49.196;8.286;2023-03-31T06:52:24;11.30;99.90
5461;DHT22;2753;49.196;8.286;2023-03-31T06:54:50;11.30;99.90
5461;DHT22;2753;49.196;8.286;2023-03-31T06:57:15;11.30;99.90
5461;DHT22;2753;49.196;8.286;2023-03-31T06:59:41;11.30;99.90
5461;DHT22;2753;49.196;8.286;2023-03-31T07:02:09;11.40;99.90
5461;DHT22;2753;49.196;8.286;2023-03-31T07:04:35;11.40;99.90
5461;DHT22;2753;49.196;8.286;2023-03-31T07:07:01;11.40;99.90
5461;DHT22;2753;49.196;8.286;2023-03-31T07:09:26;11.40;99.90
5461;DHT22;2753;49.196;8.286;2023-03-31T07:11:52;11.50;99.90
5461;DHT22;2753;49.196;8.286;2023-03-31T07:14:18;11.50;99.90
5461;DHT22;2753;49.196;8.286;2023-03-31T07:16:43;11.50;99.90
5461;DHT22;2753;49.196;8.286;2023-03-31T07:19:09;11.60;99.90
5461;DHT22;2753;49.196;8.286;2023-03-31T07:21:36;11.60;99.90
5461;DHT22;2753;49.196;8.286;2023-03-31T07:24:02;11.60;99.90
5461;DHT22;2753;49.196;8.286;2023-03-31T07:26:28;11.60;99.90
5461;DHT22;2753;49.196;8.286;2023-03-31T07:28:53;11.60;99.90
5461;DHT22;2753;49.196;8.286;2023-03-31T07:31:21;11.60;99.90
5461;DHT22;2753;49.196;8.286;2023-03-31T07:33:47;11.60;99.90
5461;DHT22;2753;49.196;8.286;2023-03-31T07:36:13;11.70;99.90
5461;DHT22;2753;49.196;8.286;2023-03-31T07:38:39;11.70;99.90
5461;DHT22;2753;49.196;8.286;2023-03-31T07:41:09;11.60;99.90
5461;DHT22;2753;49.196;8.286;2023-03-31T07:43:35;11.60;99.90
5461;DHT22;2753;49.196;8.286;2023-03-31T07:46:01;11.70;99.90
5461;DHT22;2753;49.196;8.286;2023-03-31T07:48:26;11.80;99.90
5461;DHT22;2753;49.196;8.286;2023-03-31T07:50:53;11.90;99.90
5461;DHT22;2753;49.196;8.286;2023-03-31T07:53:19;11.90;99.90
5461;DHT22;2753;49.196;8.286;2023-03-31T07:55:46;12.00;99.90
5461;DHT22;2753;49.196;8.286;2023-03-31T07:58:12;12.00;99.90
5461;DHT22;2753;49.196;8.286;2023-03-31T08:00:37;12.00;99.90
5461;DHT22;2753;49.196;8.286;2023-03-31T08:03:03;12.00;99.90
5461;DHT22;2753;49.196;8.286;2023-03-31T08:05:29;12.10;99.90
5461;DHT22;2753;49.196;8.286;2023-03-31T08:07:54;12.00;99.90
5461;DHT22;2753;49.196;8.286;2023-03-31T08:10:23;12.10;99.90
5461;DHT22;2753;49.196;8.286;2023-03-31T08:12:50;12.40;99.90
5461;DHT22;2753;49.196;8.286;2023-03-31T08:15:16;12.70;99.90
5461;DHT22;2753;49.196;8.286;2023-03-31T08:17:42;12.70;99.90
5461;DHT22;2753;49.196;8.286;2023-03-31T08:20:08;12.90;99.90
5461;DHT22;2753;49.196;8.286;2023-03-31T08:22:35;13.00;99.90
5461;DHT22;2753;49.196;8.286;2023-03-31T08:25:02;13.20;99.90
5461;DHT22;2753;49.196;8.286;2023-03-31T08:27:31;13.30;99.90
5461;DHT22;2753;49.196;8.286;2023-03-31T08:29:56;13.40;99.90
5461;DHT22;2753;49.196;8.286;2023-03-31T08:32:22;13.50;99.90
5461;DHT22;2753;49.196;8.286;2023-03-31T08:34:48;13.60;99.90
5461;DHT22;2753;49.196;8.286;2023-03-31T08:37:14;13.80;99.90
5461;DHT22;2753;49.196;8.286;2023-03-31T08:39:40;13.90;99.90
5461;DHT22;2753;49.196;8.286;2023-03-31T08:42:30;14.00;99.90
5461;DHT22;2753;49.196;8.286;2023-03-31T08:47:38;14.10;99.90
5461;DHT22;2753;49.196;8.286;2023-03-31T08:50:10;14.20;99.90
5461;DHT22;2753;49.196;8.286;2023-03-31T08:52:47;14.40;99.90
5461;DHT22;2753;49.196;8.286;2023-03-31T08:55:28;14.30;99.90
5461;DHT22;2753;49.196;8.286;2023-03-31T08:58:35;14.30;99.90
5461;DHT22;2753;49.196;8.286;2023-03-31T09:01:07;14.20;99.90
5461;DHT22;2753;49.196;8.286;2023-03-31T09:03:55;14.20;99.90
5461;DHT22;2753;49.196;8.286;2023-03-31T09:09:01;14.20;99.90
5461;DHT22;2753;49.196;8.286;2023-03-31T09:11:49;14.20;99.90
5461;DHT22;2753;49.196;8.286;2023-03-31T09:19:36;14.30;99.90
5461;DHT22;2753;49.196;8.286;2023-03-31T09:22:07;14.60;99.90
5461;DHT22;2753;49.196;8.286;2023-03-31T09:27:52;14.90;99.90
5461;DHT22;2753;49.196;8.286;2023-03-31T09:30:33;14.80;99.90
5461;DHT22;2753;49.196;8.286;2023-03-31T09:33:10;14.70;99.90
5461;DHT22;2753;49.196;8.286;2023-03-31T09:35:36;14.60;99.90
5461;DHT22;2753;49.196;8.286;2023-03-31T09:38:02;14.60;99.90
5461;DHT22;2753;49.196;8.286;2023-03-31T09:40:28;14.60;99.90
5461;DHT22;2753;49.196;8.286;2023-03-31T09:43:00;14.70;99.90
5461;DHT22;2753;49.196;8.286;2023-03-31T09:45:26;14.60;99.80
5461;DHT22;2753;49.196;8.286;2023-03-31T09:47:54;14.60;99.40
5461;DHT22;2753;49.196;8.286;2023-03-31T09:50:22;14.50;99.90
5461;DHT22;2753;49.196;8.286;2023-03-31T09:52:54;14.40;99.80
5461;DHT22;2753;49.196;8.286;2023-03-31T09:55:39;14.50;99.90
5461;DHT22;2753;49.196;8.286;2023-03-31T09:58:12;14.70;99.90
5461;DHT22;2753;49.196;8.286;2023-03-31T10:00:41;14.80;98.90
5461;DHT22;2753;49.196;8.286;2023-03-31T10:03:12;14.90;99.30
5461;DHT22;2753;49.196;8.286;2023-03-31T10:05:58;15.10;99.00
5461;DHT22;2753;49.196;8.286;2023-03-31T10:10:51;15.30;99.00
5461;DHT22;2753;49.196;8.286;2023-03-31T10:13:23;15.30;99.20
5461;DHT22;2753;49.196;8.286;2023-03-31T10:15:54;15.50;99.10
5461;DHT22;2753;49.196;8.286;2023-03-31T10:18:36;15.40;98.10
5461;DHT22;2753;49.196;8.286;2023-03-31T10:21:14;15.30;98.10
5461;DHT22;2753;49.196;8.286;2023-03-31T10:23:46;15.10;98.70
5461;DHT22;2753;49.196;8.286;2023-03-31T10:26:16;14.50;99.90
5461;DHT22;2753;49.196;8.286;2023-03-31T10:28:43;14.10;99.90
5461;DHT22;2753;49.196;8.286;2023-03-31T10:31:08;13.90;99.90
5461;DHT22;2753;49.196;8.286;2023-03-31T10:33:41;13.60;99.90
5461;DHT22;2753;49.196;8.286;2023-03-31T10:36:29;13.60;99.90
5461;DHT22;2753;49.196;8.286;2023-03-31T10:38:56;13.20;99.90
5461;DHT22;2753;49.196;8.286;2023-03-31T10:41:27;13.00;99.90
5461;DHT22;2753;49.196;8.286;2023-03-31T10:43:54;13.00;99.90
5461;DHT22;2753;49.196;8.286;2023-03-31T10:46:20;12.80;99.90
5461;DHT22;2753;49.196;8.286;2023-03-31T10:49:58;12.50;99.90
5461;DHT22;2753;49.196;8.286;2023-03-31T10:51:59;12.50;99.90
5461;DHT22;2753;49.196;8.286;2023-03-31T10:54:26;12.60;99.90
5461;DHT22;2753;49.196;8.286;2023-03-31T10:56:54;12.70;99.90
5461;DHT22;2753;49.196;8.286;2023-03-31T11:13:28;14.00;99.90
5461;DHT22;2753;49.196;8.286;2023-03-31T11:21:28;14.30;99.90
5461;DHT22;2753;49.196;8.286;2023-03-31T11:26:57;14.30;99.90
5461;DHT22;2753;49.196;8.286;2023-03-31T11:51:59;14.20;98.40
5461;DHT22;2753;49.196;8.286;2023-03-31T11:54:40;14.20;98.40
5461;DHT22;2753;49.196;8.286;2023-03-31T11:57:19;14.20;98.50
5461;DHT22;2753;49.196;8.286;2023-03-31T11:59:53;14.20;98.40
5461;DHT22;2753;49.196;8.286;2023-03-31T12:02:53;14.10;97.90
5461;DHT22;2753;49.196;8.286;2023-03-31T12:05:25;14.00;97.50
5461;DHT22;2753;49.196;8.286;2023-03-31T12:10:58;14.00;97.40
5461;DHT22;2753;49.196;8.286;2023-03-31T12:19:15;14.00;97.60
5461;DHT22;2753;49.196;8.286;2023-03-31T12:21:47;14.00;97.80
5461;DHT22;2753;49.196;8.286;2023-03-31T12:24:14;13.90;97.30
5461;DHT22;2753;49.196;8.286;2023-03-31T12:29:53;13.90;98.40
5461;DHT22;2753;49.196;8.286;2023-03-31T12:32:26;14.00;98.70
5461;DHT22;2753;49.196;8.286;2023-03-31T12:40:46;13.90;98.70
5461;DHT22;2753;49.196;8.286;2023-03-31T12:48:57;13.60;98.40
5461;DHT22;2753;49.196;8.286;2023-03-31T12:57:22;13.50;99.90
5461;DHT22;2753;49.196;8.286;2023-03-31T13:02:35;13.50;99.90
5461;DHT22;2753;49.196;8.286;2023-03-31T13:05:39;13.50;99.90
5461;DHT22;2753;49.196;8.286;2023-03-31T13:08:09;13.50;99.90
5461;DHT22;2753;49.196;8.286;2023-03-31T13:10:57;13.50;99.90
5461;DHT22;2753;49.196;8.286;2023-03-31T13:13:23;13.50;99.90
5461;DHT22;2753;49.196;8.286;2023-03-31T13:15:55;13.50;99.90
5461;DHT22;2753;49.196;8.286;2023-03-31T13:18:21;13.40;99.90
5461;DHT22;2753;49.196;8.286;2023-03-31T13:20:58;13.40;99.90
5461;DHT22;2753;49.196;8.286;2023-03-31T13:23:24;13.40;99.90
5461;DHT22;2753;49.196;8.286;2023-03-31T13:25:52;13.50;99.90
5461;DHT22;2753;49.196;8.286;2023-03-31T13:31:04;13.60;99.90
5461;DHT22;2753;49.196;8.286;2023-03-31T13:59:10;14.30;99.90
5461;DHT22;2753;49.196;8.286;2023-03-31T14:07:46;14.20;99.90
5461;DHT22;2753;49.196;8.286;2023-03-31T14:13:03;14.10;99.90
5461;DHT22;2753;49.196;8.286;2023-03-31T14:15:29;14.10;99.90
5461;DHT22;2753;49.196;8.286;2023-03-31T14:17:55;14.00;99.90
5461;DHT22;2753;49.196;8.286;2023-03-31T14:36:28;13.20;99.90
5461;DHT22;2753;49.196;8.286;2023-03-31T14:39:04;13.20;99.90
5461;DHT22;2753;49.196;8.286;2023-03-31T14:41:30;13.30;99.90
5461;DHT22;2753;49.196;8.286;2023-03-31T14:44:00;13.40;99.90
5461;DHT22;2753;49.196;8.286;2023-03-31T14:46:29;13.40;99.90
5461;DHT22;2753;49.196;8.286;2023-03-31T14:48:57;13.40;99.90
5461;DHT22;2753;49.196;8.286;2023-03-31T14:51:27;13.50;99.90
5461;DHT22;2753;49.196;8.286;2023-03-31T14:53:58;13.50;99.90
5461;DHT22;2753;49.196;8.286;2023-03-31T14:56:33;13.50;99.90
5461;DHT22;2753;49.196;8.286;2023-03-31T14:59:02;13.60;99.90
5461;DHT22;2753;49.196;8.286;2023-03-31T15:01:31;13.60;99.90
5461;DHT22;2753;49.196;8.286;2023-03-31T15:04:13;13.60;99.90
5461;DHT22;2753;49.196;8.286;2023-03-31T15:06:40;13.60;99.90
5461;DHT22;2753;49.196;8.286;2023-03-31T15:09:08;13.60;99.90
5461;DHT22;2753;49.196;8.286;2023-03-31T15:11:36;13.60;99.90
5461;DHT22;2753;49.196;8.286;2023-03-31T15:14:02;13.60;99.90
5461;DHT22;2753;49.196;8.286;2023-03-31T15:16:41;13.60;99.90
5461;DHT22;2753;49.196;8.286;2023-03-31T15:21:45;13.70;99.90
5461;DHT22;2753;49.196;8.286;2023-03-31T15:24:12;13.70;99.90
5461;DHT22;2753;49.196;8.286;2023-03-31T15:31:56;13.60;99.90
5461;DHT22;2753;49.196;8.286;2023-03-31T15:34:31;13.60;99.90
5461;DHT22;2753;49.196;8.286;2023-03-31T15:36:58;13.60;99.90
5461;DHT22;2753;49.196;8.286;2023-03-31T15:39:27;13.60;99.90
5461;DHT22;2753;49.196;8.286;2023-03-31T15:41:55;13.50;99.90
5461;DHT22;2753;49.196;8.286;2023-03-31T15:47:19;13.50;99.90
5461;DHT22;2753;49.196;8.286;2023-03-31T15:49:56;13.50;99.90
5461;DHT22;2753;49.196;8.286;2023-03-31T15:52:34;13.50;99.90
5461;DHT22;2753;49.196;8.286;2023-03-31T15:55:01;13.50;99.90
5461;DHT22;2753;49.196;8.286;2023-03-31T15:57:46;13.50;99.90
5461;DHT22;2753;49.196;8.286;2023-03-31T16:02:59;13.50;99.90
5461;DHT22;2753;49.196;8.286;2023-03-31T16:05:57;13.50;99.90
5461;DHT22;2753;49.196;8.286;2023-03-31T16:08:50;13.50;99.90
5461;DHT22;2753;49.196;8.286;2023-03-31T16:11:32;13.50;99.90
5461;DHT22;2753;49.196;8.286;2023-03-31T16:13:59;13.40;99.90
5461;DHT22;2753;49.196;8.286;2023-03-31T16:16:30;13.30;99.90
5461;DHT22;2753;49.196;8.286;2023-03-31T16:19:03;13.20;99.90
5461;DHT22;2753;49.196;8.286;2023-03-31T16:21:43;13.00;99.90
5461;DHT22;2753;49.196;8.286;2023-03-31T16:24:12;13.10;99.90
5461;DHT22;2753;49.196;8.286;2023-03-31T16:26:39;13.00;99.90
5461;DHT22;2753;49.196;8.286;2023-03-31T16:29:05;13.00;99.90
5461;DHT22;2753;49.196;8.286;2023-03-31T16:31:39;12.90;99.90
5461;DHT22;2753;49.196;8.286;2023-03-31T16:34:07;12.90;99.90
5461;DHT22;2753;49.196;8.286;2023-03-31T16:36:33;12.80;99.90
5461;DHT22;2753;49.196;8.286;2023-03-31T16:39:00;12.70;99.90
5461;DHT22;2753;49.196;8.286;2023-03-31T16:41:30;12.60;99.90
5461;DHT22;2753;49.196;8.286;2023-03-31T16:43:56;12.60;99.90
5461;DHT22;2753;49.196;8.286;2023-03-31T16:46:22;12.50;99.90
5461;DHT22;2753;49.196;8.286;2023-03-31T16:48:48;12.50;99.90
5461;DHT22;2753;49.196;8.286;2023-03-31T16:51:14;12.60;99.90
5461;DHT22;2753;49.196;8.286;2023-03-31T16:53:42;12.50;99.90
5461;DHT22;2753;49.196;8.286;2023-03-31T16:56:08;12.40;99.90
5461;DHT22;2753;49.196;8.286;2023-03-31T16:58:35;12.20;99.90
5461;DHT22;2753;49.196;8.286;2023-03-31T17:01:03;12.20;99.90
5461;DHT22;2753;49.196;8.286;2023-03-31T17:03:29;12.10;99.90
5461;DHT22;2753;49.196;8.286;2023-03-31T17:05:55;12.10;99.90
5461;DHT22;2753;49.196;8.286;2023-03-31T17:08:24;12.00;99.90
5461;DHT22;2753;49.196;8.286;2023-03-31T17:10:52;12.00;99.90
5461;DHT22;2753;49.196;8.286;2023-03-31T17:13:18;12.00;99.90
5461;DHT22;2753;49.196;8.286;2023-03-31T17:15:44;11.90;99.90
5461;DHT22;2753;49.196;8.286;2023-03-31T17:18:11;11.80;99.90
5461;DHT22;2753;49.196;8.286;2023-03-31T17:20:36;11.80;99.90
5461;DHT22;2753;49.196;8.286;2023-03-31T17:23:02;11.90;99.90
5461;DHT22;2753;49.196;8.286;2023-03-31T17:25:28;11.80;99.90
5461;DHT22;2753;49.196;8.286;2023-03-31T17:27:55;11.80;99.90
5461;DHT22;2753;49.196;8.286;2023-03-31T17:30:22;11.70;99.90
5461;DHT22;2753;49.196;8.286;2023-03-31T17:32:48;11.70;99.90
5461;DHT22;2753;49.196;8.286;2023-03-31T17:35:13;11.70;99.90
5461;DHT22;2753;49.196;8.286;2023-03-31T17:37:46;11.60;99.90
5461;DHT22;2753;49.196;8.286;2023-03-31T17:40:14;11.50;99.90
5461;DHT22;2753;49.196;8.286;2023-03-31T17:42:41;11.60;99.90
5461;DHT22;2753;49.196;8.286;2023-03-31T17:45:07;11.70;99.90
5461;DHT22;2753;49.196;8.286;2023-03-31T17:47:33;11.70;99.90
5461;DHT22;2753;49.196;8.286;2023-03-31T17:49:59;11.60;99.90
5461;DHT22;2753;49.196;8.286;2023-03-31T17:52:25;11.50;99.90
5461;DHT22;2753;49.196;8.286;2023-03-31T17:54:52;11.50;99.90
5461;DHT22;2753;49.196;8.286;2023-03-31T17:57:17;11.40;99.90
5461;DHT22;2753;49.196;8.286;2023-03-31T17:59:43;11.40;99.90
5461;DHT22;2753;49.196;8.286;2023-03-31T18:02:12;11.40;99.90
5461;DHT22;2753;49.196;8.286;2023-03-31T18:04:39;11.40;99.90
5461;DHT22;2753;49.196;8.286;2023-03-31T18:07:05;11.30;99.90
5461;DHT22;2753;49.196;8.286;2023-03-31T18:09:31;11.30;99.90
5461;DHT22;2753;49.196;8.286;2023-03-31T18:11:57;11.30;99.90
5461;DHT22;2753;49.196;8.286;2023-03-31T18:14:23;11.30;99.90
5461;DHT22;2753;49.196;8.286;2023-03-31T18:16:49;11.30;99.90
5461;DHT22;2753;49.196;8.286;2023-03-31T18:19:14;11.10;99.90
5461;DHT22;2753;49.196;8.286;2023-03-31T18:21:41;11.10;99.90
5461;DHT22;2753;49.196;8.286;2023-03-31T18:24:07;11.20;99.90
5461;DHT22;2753;49.196;8.286;2023-03-31T18:26:32;11.20;99.90
5461;DHT22;2753;49.196;8.286;2023-03-31T18:28:58;11.30;99.90
5461;DHT22;2753;49.196;8.286;2023-03-31T18:31:24;11.20;99.90
5461;DHT22;2753;49.196;8.286;2023-03-31T18:33:51;11.20;99.90
5461;DHT22;2753;49.196;8.286;2023-03-31T18:36:20;11.10;99.90
5461;DHT22;2753;49.196;8.286;2023-03-31T18:38:47;11.10;99.90
5461;DHT22;2753;49.196;8.286;2023-03-31T18:41:13;11.20;99.90
5461;DHT22;2753;49.196;8.286;2023-03-31T18:43:39;11.10;99.90
5461;DHT22;2753;49.196;8.286;2023-03-31T18:46:05;11.00;99.90
5461;DHT22;2753;49.196;8.286;2023-03-31T18:48:31;11.00;99.90
5461;DHT22;2753;49.196;8.286;2023-03-31T18:50:57;10.90;99.90
5461;DHT22;2753;49.196;8.286;2023-03-31T18:53:23;10.90;99.90
5461;DHT22;2753;49.196;8.286;2023-03-31T18:55:54;10.80;99.90
5461;DHT22;2753;49.196;8.286;2023-03-31T18:58:22;10.90;99.90
5461;DHT22;2753;49.196;8.286;2023-03-31T19:00:48;10.90;99.90
5461;DHT22;2753;49.196;8.286;2023-03-31T19:03:13;10.90;99.90
5461;DHT22;2753;49.196;8.286;2023-03-31T19:05:39;10.90;99.90
5461;DHT22;2753;49.196;8.286;2023-03-31T19:08:05;10.90;99.90
5461;DHT22;2753;49.196;8.286;2023-03-31T19:10:31;10.90;99.90
5461;DHT22;2753;49.196;8.286;2023-03-31T19:12:58;10.90;99.90
5461;DHT22;2753;49.196;8.286;2023-03-31T19:15:24;10.90;99.90
5461;DHT22;2753;49.196;8.286;2023-03-31T19:17:51;10.80;99.90
5461;DHT22;2753;49.196;8.286;2023-03-31T19:20:17;10.90;99.90
5461;DHT22;2753;49.196;8.286;2023-03-31T19:22:47;10.90;99.90
5461;DHT22;2753;49.196;8.286;2023-03-31T19:25:15;10.90;99.90
5461;DHT22;2753;49.196;8.286;2023-03-31T19:27:41;10.90;99.90
5461;DHT22;2753;49.196;8.286;2023-03-31T19:30:15;11.00;99.90
5461;DHT22;2753;49.196;8.286;2023-03-31T19:32:45;10.90;99.90
5461;DHT22;2753;49.196;8.286;2023-03-31T19:35:11;11.00;99.90
5461;DHT22;2753;49.196;8.286;2023-03-31T19:37:37;10.90;99.90
5461;DHT22;2753;49.196;8.286;2023-03-31T19:40:04;10.90;99.90
5461;DHT22;2753;49.196;8.286;2023-03-31T19:42:32;10.80;99.90
5461;DHT22;2753;49.196;8.286;2023-03-31T19:44:58;10.90;99.90